createdAt,value
2023-01-11T00:09:16.153Z,73.58
2023-01-11T00:31:02.343Z,71.98
2023-01-11T00:52:48.040Z,71.37
2023-01-11T01:14:34.157Z,71.92
2023-01-11T01:36:19.898Z,71.51
2023-01-11T01:58:12.924Z,71.77
2023-01-11T04:01:12.387Z,67.96
2023-01-11T04:22:55.553Z,72.52
2023-01-11T04:44:38.674Z,74.18
2023-01-11T05:06:22.125Z,74.45
2023-01-11T05:28:05.950Z,73.87
2023-01-11T05:49:49.061Z,73.72
2023-01-11T06:11:32.145Z,73.28
2023-01-11T06:33:15.489Z,73.80
2023-01-11T06:54:58.625Z,73.86
2023-01-11T07:16:43.211Z,73.46
2023-01-11T07:38:30.012Z,72.23
2023-01-11T08:00:15.399Z,70.87
2023-01-11T08:22:06.494Z,69.71
2023-01-11T08:43:50.170Z,68.27
2023-01-11T09:05:35.240Z,66.90
2023-01-11T09:27:19.305Z,65.16
2023-01-11T09:49:04.391Z,65.58
2023-01-11T10:33:17.756Z,65.43
2023-01-11T10:55:02.448Z,65.15
2023-01-11T11:16:59.209Z,63.86
2023-01-11T11:39:00.322Z,59.47
2023-01-11T12:00:48.351Z,59.58
2023-01-11T12:22:31.491Z,60.41
2023-01-11T12:44:52.194Z,61.77
2023-01-11T13:06:40.951Z,61.97
2023-01-11T13:28:34.443Z,62.57
2023-01-11T13:50:24.703Z,62.52
2023-01-11T14:12:23.894Z,63.36
2023-01-11T14:34:47.517Z,64.33
2023-01-11T14:56:47.885Z,65.81
2023-01-11T15:18:32.489Z,67.18
2023-01-11T15:40:20.234Z,68.87
2023-01-11T16:02:36.136Z,71.33
2023-01-11T16:24:24.746Z,72.13
2023-01-11T16:46:28.373Z,72.66
2023-01-11T17:08:28.064Z,72.95
2023-01-11T17:30:18.005Z,73.36
2023-01-11T17:52:10.281Z,73.60
2023-01-11T18:13:55.216Z,73.34
2023-01-11T18:35:45.478Z,72.98
2023-01-11T18:57:29.740Z,72.44
2023-01-11T19:19:13.002Z,71.91
2023-01-11T19:41:05.242Z,72.39
2023-01-11T20:02:51.397Z,74.17
2023-01-11T20:24:37.670Z,79.76
2023-01-11T20:46:32.418Z,83.77
2023-01-11T21:08:16.408Z,86.22
2023-01-11T21:30:00.694Z,87.90
2023-01-11T21:51:43.856Z,88.72
2023-01-11T22:13:29.342Z,89.21
2023-01-11T22:35:13.223Z,89.49
2023-01-11T22:56:57.993Z,90.25
2023-01-11T23:18:50.892Z,90.96
2023-01-11T23:40:57.601Z,91.00
